sensor_id;sensor_type;location;lat;lon;timestamp;P1;durP1;ratioP1;P2;durP2;ratioP2
27305;SDS011;14792;50.886;6.468;2023-07-08T00:02:38;29.90;;;6.40;;
27305;SDS011;14792;50.886;6.468;2023-07-08T00:05:39;24.92;;;5.87;;
27305;SDS011;14792;50.886;6.468;2023-07-08T00:08:41;25.65;;;6.25;;
27305;SDS011;14792;50.886;6.468;2023-07-08T00:11:42;34.15;;;6.40;;
27305;SDS011;14792;50.886;6.468;2023-07-08T00:14:44;25.40;;;6.05;;
27305;SDS011;14792;50.886;6.468;2023-07-08T00:17:46;24.18;;;6.58;;
27305;SDS011;14792;50.886;6.468;2023-07-08T00:20:48;24.25;;;5.55;;
27305;SDS011;14792;50.886;6.468;2023-07-08T00:23:49;19.20;;;5.87;;
27305;SDS011;14792;50.886;6.468;2023-07-08T00:26:50;33.15;;;5.60;;
27305;SDS011;14792;50.886;6.468;2023-07-08T00:29:52;21.33;;;5.80;;
27305;SDS011;14792;50.886;6.468;2023-07-08T00:32:54;20.60;;;6.15;;
27305;SDS011;14792;50.886;6.468;2023-07-08T00:35:55;19.85;;;5.83;;
27305;SDS011;14792;50.886;6.468;2023-07-08T00:38:59;18.27;;;5.92;;
27305;SDS011;14792;50.886;6.468;2023-07-08T00:42:01;10.75;;;5.47;;
27305;SDS011;14792;50.886;6.468;2023-07-08T00:45:06;17.12;;;5.78;;
27305;SDS011;14792;50.886;6.468;2023-07-08T00:48:16;15.23;;;5.35;;
27305;SDS011;14792;50.886;6.468;2023-07-08T00:51:16;20.85;;;5.87;;
27305;SDS011;14792;50.886;6.468;2023-07-08T00:54:18;22.73;;;5.75;;
27305;SDS011;14792;50.886;6.468;2023-07-08T00:57:19;18.35;;;4.95;;
27305;SDS011;14792;50.886;6.468;2023-07-08T01:00:21;16.57;;;5.75;;
27305;SDS011;14792;50.886;6.468;2023-07-08T01:03:22;15.25;;;5.65;;
27305;SDS011;14792;50.886;6.468;2023-07-08T01:06:24;18.92;;;6.28;;
27305;SDS011;14792;50.886;6.468;2023-07-08T01:09:31;17.70;;;6.28;;
27305;SDS011;14792;50.886;6.468;2023-07-08T01:12:34;12.65;;;5.92;;
27305;SDS011;14792;50.886;6.468;2023-07-08T01:15:37;22.40;;;6.28;;
27305;SDS011;14792;50.886;6.468;2023-07-08T01:18:41;15.40;;;5.92;;
27305;SDS011;14792;50.886;6.468;2023-07-08T01:21:46;17.80;;;5.97;;
27305;SDS011;14792;50.886;6.468;2023-07-08T01:24:46;20.43;;;5.70;;
27305;SDS011;14792;50.886;6.468;2023-07-08T01:27:49;17.30;;;5.62;;
27305;SDS011;14792;50.886;6.468;2023-07-08T01:30:50;19.12;;;5.37;;
27305;SDS011;14792;50.886;6.468;2023-07-08T01:33:51;20.62;;;5.60;;
27305;SDS011;14792;50.886;6.468;2023-07-08T01:36:54;27.93;;;5.78;;
27305;SDS011;14792;50.886;6.468;2023-07-08T01:43:01;29.40;;;6.78;;
27305;SDS011;14792;50.886;6.468;2023-07-08T01:46:02;39.20;;;6.90;;
27305;SDS011;14792;50.886;6.468;2023-07-08T01:49:04;21.93;;;6.45;;
27305;SDS011;14792;50.886;6.468;2023-07-08T01:52:05;31.77;;;6.62;;
27305;SDS011;14792;50.886;6.468;2023-07-08T01:55:07;30.50;;;6.95;;
27305;SDS011;14792;50.886;6.468;2023-07-08T01:58:08;34.40;;;8.03;;
27305;SDS011;14792;50.886;6.468;2023-07-08T02:01:10;29.98;;;8.23;;
27305;SDS011;14792;50.886;6.468;2023-07-08T02:04:12;21.42;;;8.05;;
27305;SDS011;14792;50.886;6.468;2023-07-08T02:07:13;20.50;;;6.10;;
27305;SDS011;14792;50.886;6.468;2023-07-08T02:10:15;23.30;;;6.87;;
27305;SDS011;14792;50.886;6.468;2023-07-08T02:13:17;22.00;;;6.67;;
27305;SDS011;14792;50.886;6.468;2023-07-08T02:16:18;25.40;;;7.67;;
27305;SDS011;14792;50.886;6.468;2023-07-08T02:19:19;21.30;;;7.78;;
27305;SDS011;14792;50.886;6.468;2023-07-08T02:22:21;18.95;;;7.25;;
27305;SDS011;14792;50.886;6.468;2023-07-08T02:25:23;21.10;;;7.62;;
27305;SDS011;14792;50.886;6.468;2023-07-08T02:28:24;17.32;;;6.97;;
27305;SDS011;14792;50.886;6.468;2023-07-08T02:35:27;25.52;;;7.10;;
27305;SDS011;14792;50.886;6.468;2023-07-08T02:38:29;21.37;;;7.53;;
27305;SDS011;14792;50.886;6.468;2023-07-08T02:41:32;21.30;;;7.45;;
27305;SDS011;14792;50.886;6.468;2023-07-08T02:44:33;20.35;;;8.28;;
27305;SDS011;14792;50.886;6.468;2023-07-08T02:47:35;20.15;;;7.28;;
27305;SDS011;14792;50.886;6.468;2023-07-08T02:50:37;17.70;;;6.55;;
27305;SDS011;14792;50.886;6.468;2023-07-08T02:53:38;19.50;;;7.62;;
27305;SDS011;14792;50.886;6.468;2023-07-08T02:56:40;16.12;;;7.72;;
27305;SDS011;14792;50.886;6.468;2023-07-08T02:59:41;21.00;;;8.18;;
27305;SDS011;14792;50.886;6.468;2023-07-08T03:02:43;13.98;;;6.70;;
27305;SDS011;14792;50.886;6.468;2023-07-08T03:05:53;22.35;;;7.62;;
27305;SDS011;14792;50.886;6.468;2023-07-08T03:08:46;17.95;;;7.65;;
27305;SDS011;14792;50.886;6.468;2023-07-08T03:11:48;15.83;;;7.42;;
27305;SDS011;14792;50.886;6.468;2023-07-08T03:14:49;18.70;;;6.65;;
27305;SDS011;14792;50.886;6.468;2023-07-08T03:17:51;18.67;;;7.78;;
27305;SDS011;14792;50.886;6.468;2023-07-08T03:20:53;17.90;;;7.33;;
27305;SDS011;14792;50.886;6.468;2023-07-08T03:23:54;13.90;;;7.12;;
27305;SDS011;14792;50.886;6.468;2023-07-08T03:26:56;20.62;;;7.37;;
27305;SDS011;14792;50.886;6.468;2023-07-08T03:29:58;21.27;;;7.72;;
27305;SDS011;14792;50.886;6.468;2023-07-08T03:33:00;18.45;;;7.47;;
27305;SDS011;14792;50.886;6.468;2023-07-08T03:36:02;23.30;;;7.80;;
27305;SDS011;14792;50.886;6.468;2023-07-08T03:39:03;17.87;;;7.50;;
27305;SDS011;14792;50.886;6.468;2023-07-08T03:42:04;22.32;;;8.33;;
27305;SDS011;14792;50.886;6.468;2023-07-08T03:45:06;16.37;;;8.53;;
27305;SDS011;14792;50.886;6.468;2023-07-08T03:48:09;19.37;;;8.08;;
27305;SDS011;14792;50.886;6.468;2023-07-08T03:51:15;22.85;;;8.35;;
27305;SDS011;14792;50.886;6.468;2023-07-08T03:54:23;23.65;;;8.85;;
27305;SDS011;14792;50.886;6.468;2023-07-08T03:57:24;19.82;;;8.20;;
27305;SDS011;14792;50.886;6.468;2023-07-08T04:00:26;18.55;;;8.38;;
27305;SDS011;14792;50.886;6.468;2023-07-08T04:03:29;17.73;;;8.20;;
27305;SDS011;14792;50.886;6.468;2023-07-08T04:06:31;19.65;;;8.85;;
27305;SDS011;14792;50.886;6.468;2023-07-08T04:09:32;20.88;;;7.90;;
27305;SDS011;14792;50.886;6.468;2023-07-08T04:12:34;19.40;;;8.05;;
27305;SDS011;14792;50.886;6.468;2023-07-08T04:15:36;16.52;;;7.42;;
27305;SDS011;14792;50.886;6.468;2023-07-08T04:18:37;23.25;;;8.38;;
27305;SDS011;14792;50.886;6.468;2023-07-08T04:21:39;26.45;;;8.85;;
27305;SDS011;14792;50.886;6.468;2023-07-08T04:24:40;18.37;;;8.68;;
27305;SDS011;14792;50.886;6.468;2023-07-08T04:27:42;19.15;;;8.30;;
27305;SDS011;14792;50.886;6.468;2023-07-08T04:30:44;22.27;;;8.53;;
27305;SDS011;14792;50.886;6.468;2023-07-08T04:33:45;16.48;;;8.85;;
27305;SDS011;14792;50.886;6.468;2023-07-08T04:36:47;14.73;;;8.70;;
27305;SDS011;14792;50.886;6.468;2023-07-08T04:39:48;22.73;;;9.13;;
27305;SDS011;14792;50.886;6.468;2023-07-08T04:42:50;15.95;;;8.25;;
27305;SDS011;14792;50.886;6.468;2023-07-08T04:45:51;23.85;;;8.65;;
27305;SDS011;14792;50.886;6.468;2023-07-08T04:48:53;18.57;;;8.50;;
27305;SDS011;14792;50.886;6.468;2023-07-08T04:51:55;18.07;;;7.83;;
27305;SDS011;14792;50.886;6.468;2023-07-08T04:54:56;19.77;;;8.58;;
27305;SDS011;14792;50.886;6.468;2023-07-08T04:58:01;16.57;;;8.15;;
27305;SDS011;14792;50.886;6.468;2023-07-08T05:01:02;19.17;;;8.13;;
27305;SDS011;14792;50.886;6.468;2023-07-08T05:04:04;15.72;;;8.48;;
27305;SDS011;14792;50.886;6.468;2023-07-08T05:07:08;18.92;;;9.43;;
27305;SDS011;14792;50.886;6.468;2023-07-08T05:10:13;19.07;;;8.55;;
27305;SDS011;14792;50.886;6.468;2023-07-08T05:13:17;23.52;;;8.83;;
27305;SDS011;14792;50.886;6.468;2023-07-08T05:16:18;25.55;;;9.40;;
27305;SDS011;14792;50.886;6.468;2023-07-08T05:19:20;31.48;;;9.18;;
27305;SDS011;14792;50.886;6.468;2023-07-08T05:22:22;29.37;;;8.93;;
27305;SDS011;14792;50.886;6.468;2023-07-08T05:25:23;26.85;;;9.10;;
27305;SDS011;14792;50.886;6.468;2023-07-08T05:28:25;18.25;;;9.43;;
27305;SDS011;14792;50.886;6.468;2023-07-08T05:31:27;17.80;;;9.13;;
27305;SDS011;14792;50.886;6.468;2023-07-08T05:34:29;17.98;;;9.18;;
27305;SDS011;14792;50.886;6.468;2023-07-08T05:37:31;20.32;;;8.58;;
27305;SDS011;14792;50.886;6.468;2023-07-08T05:40:32;23.62;;;9.50;;
27305;SDS011;14792;50.886;6.468;2023-07-08T05:43:34;21.20;;;9.15;;
27305;SDS011;14792;50.886;6.468;2023-07-08T05:46:36;14.25;;;8.55;;
27305;SDS011;14792;50.886;6.468;2023-07-08T05:49:37;13.00;;;8.73;;
27305;SDS011;14792;50.886;6.468;2023-07-08T05:52:39;20.27;;;9.03;;
27305;SDS011;14792;50.886;6.468;2023-07-08T05:55:40;18.12;;;8.58;;
27305;SDS011;14792;50.886;6.468;2023-07-08T05:58:42;16.87;;;8.55;;
27305;SDS011;14792;50.886;6.468;2023-07-08T06:01:44;19.82;;;9.48;;
27305;SDS011;14792;50.886;6.468;2023-07-08T06:04:45;14.95;;;8.80;;
27305;SDS011;14792;50.886;6.468;2023-07-08T06:07:47;17.55;;;8.95;;
27305;SDS011;14792;50.886;6.468;2023-07-08T06:10:49;15.72;;;8.98;;
27305;SDS011;14792;50.886;6.468;2023-07-08T06:13:50;18.52;;;8.80;;
27305;SDS011;14792;50.886;6.468;2023-07-08T06:16:52;11.93;;;7.90;;
27305;SDS011;14792;50.886;6.468;2023-07-08T06:19:53;14.40;;;8.50;;
27305;SDS011;14792;50.886;6.468;2023-07-08T06:22:55;14.43;;;8.93;;
27305;SDS011;14792;50.886;6.468;2023-07-08T06:25:56;13.70;;;8.25;;
27305;SDS011;14792;50.886;6.468;2023-07-08T06:29:01;14.45;;;8.30;;
27305;SDS011;14792;50.886;6.468;2023-07-08T06:32:02;13.18;;;8.03;;
27305;SDS011;14792;50.886;6.468;2023-07-08T06:35:04;17.70;;;7.92;;
27305;SDS011;14792;50.886;6.468;2023-07-08T06:38:06;21.52;;;8.78;;
27305;SDS011;14792;50.886;6.468;2023-07-08T06:41:07;13.98;;;8.15;;
27305;SDS011;14792;50.886;6.468;2023-07-08T06:44:09;23.12;;;7.75;;
27305;SDS011;14792;50.886;6.468;2023-07-08T06:47:10;16.23;;;8.23;;
27305;SDS011;14792;50.886;6.468;2023-07-08T06:50:12;12.18;;;8.13;;
27305;SDS011;14792;50.886;6.468;2023-07-08T06:53:14;17.90;;;8.23;;
27305;SDS011;14792;50.886;6.468;2023-07-08T06:56:15;15.38;;;8.28;;
27305;SDS011;14792;50.886;6.468;2023-07-08T06:59:17;15.63;;;7.85;;
27305;SDS011;14792;50.886;6.468;2023-07-08T07:02:18;13.45;;;8.20;;
27305;SDS011;14792;50.886;6.468;2023-07-08T07:05:20;13.78;;;7.92;;
27305;SDS011;14792;50.886;6.468;2023-07-08T07:08:21;13.48;;;7.10;;
27305;SDS011;14792;50.886;6.468;2023-07-08T07:11:23;13.40;;;7.45;;
27305;SDS011;14792;50.886;6.468;2023-07-08T07:14:24;19.77;;;8.15;;
27305;SDS011;14792;50.886;6.468;2023-07-08T07:17:26;17.23;;;7.42;;
27305;SDS011;14792;50.886;6.468;2023-07-08T07:20:31;17.07;;;7.62;;
27305;SDS011;14792;50.886;6.468;2023-07-08T07:23:32;14.00;;;7.90;;
27305;SDS011;14792;50.886;6.468;2023-07-08T07:26:34;19.90;;;8.20;;
27305;SDS011;14792;50.886;6.468;2023-07-08T07:29:54;20.70;;;8.10;;
27305;SDS011;14792;50.886;6.468;2023-07-08T07:32:40;26.55;;;9.18;;
27305;SDS011;14792;50.886;6.468;2023-07-08T07:35:44;18.57;;;8.38;;
27305;SDS011;14792;50.886;6.468;2023-07-08T07:38:45;24.52;;;9.23;;
27305;SDS011;14792;50.886;6.468;2023-07-08T07:41:47;25.40;;;8.60;;
27305;SDS011;14792;50.886;6.468;2023-07-08T07:44:49;25.80;;;7.90;;
27305;SDS011;14792;50.886;6.468;2023-07-08T07:47:50;26.45;;;8.63;;
27305;SDS011;14792;50.886;6.468;2023-07-08T07:50:52;22.55;;;8.65;;
27305;SDS011;14792;50.886;6.468;2023-07-08T07:53:53;21.40;;;8.58;;
27305;SDS011;14792;50.886;6.468;2023-07-08T07:56:55;19.12;;;7.90;;
27305;SDS011;14792;50.886;6.468;2023-07-08T07:59:56;18.52;;;8.33;;
27305;SDS011;14792;50.886;6.468;2023-07-08T08:03:01;23.98;;;8.70;;
27305;SDS011;14792;50.886;6.468;2023-07-08T08:06:03;18.95;;;7.90;;
27305;SDS011;14792;50.886;6.468;2023-07-08T08:09:05;16.50;;;7.83;;
27305;SDS011;14792;50.886;6.468;2023-07-08T08:12:07;18.90;;;7.12;;
27305;SDS011;14792;50.886;6.468;2023-07-08T08:15:08;16.55;;;7.75;;
27305;SDS011;14792;50.886;6.468;2023-07-08T08:18:09;15.90;;;8.33;;
27305;SDS011;14792;50.886;6.468;2023-07-08T08:21:11;15.72;;;7.80;;
27305;SDS011;14792;50.886;6.468;2023-07-08T08:24:12;14.45;;;7.92;;
27305;SDS011;14792;50.886;6.468;2023-07-08T08:27:14;15.45;;;8.28;;
27305;SDS011;14792;50.886;6.468;2023-07-08T08:30:15;14.65;;;7.15;;
27305;SDS011;14792;50.886;6.468;2023-07-08T08:33:17;24.82;;;8.53;;
27305;SDS011;14792;50.886;6.468;2023-07-08T08:36:19;14.40;;;7.20;;
27305;SDS011;14792;50.886;6.468;2023-07-08T08:45:53;12.25;;;8.18;;
27305;SDS011;14792;50.886;6.468;2023-07-08T08:52:20;12.25;;;7.17;;
27305;SDS011;14792;50.886;6.468;2023-07-08T08:55:22;15.65;;;7.65;;
27305;SDS011;14792;50.886;6.468;2023-07-08T09:01:36;14.43;;;7.53;;
27305;SDS011;14792;50.886;6.468;2023-07-08T09:04:38;18.80;;;7.90;;
27305;SDS011;14792;50.886;6.468;2023-07-08T09:10:48;12.98;;;6.95;;
27305;SDS011;14792;50.886;6.468;2023-07-08T09:16:52;16.43;;;7.27;;
27305;SDS011;14792;50.886;6.468;2023-07-08T09:23:21;19.20;;;7.83;;
27305;SDS011;14792;50.886;6.468;2023-07-08T09:26:24;15.45;;;7.33;;
27305;SDS011;14792;50.886;6.468;2023-07-08T09:29:25;10.68;;;6.58;;
27305;SDS011;14792;50.886;6.468;2023-07-08T09:32:27;13.38;;;7.12;;
27305;SDS011;14792;50.886;6.468;2023-07-08T09:35:37;11.68;;;6.85;;
27305;SDS011;14792;50.886;6.468;2023-07-08T09:41:32;11.95;;;6.75;;
27305;SDS011;14792;50.886;6.468;2023-07-08T09:44:33;14.83;;;6.67;;
27305;SDS011;14792;50.886;6.468;2023-07-08T09:47:36;16.05;;;7.15;;
27305;SDS011;14792;50.886;6.468;2023-07-08T09:50:36;14.90;;;6.83;;
27305;SDS011;14792;50.886;6.468;2023-07-08T09:53:38;11.80;;;7.10;;
27305;SDS011;14792;50.886;6.468;2023-07-08T09:56:41;14.93;;;6.80;;
27305;SDS011;14792;50.886;6.468;2023-07-08T09:59:47;13.90;;;7.12;;
27305;SDS011;14792;50.886;6.468;2023-07-08T10:02:52;15.28;;;6.22;;
27305;SDS011;14792;50.886;6.468;2023-07-08T10:05:52;20.75;;;6.60;;
27305;SDS011;14792;50.886;6.468;2023-07-08T10:08:54;14.05;;;7.33;;
27305;SDS011;14792;50.886;6.468;2023-07-08T10:15:03;11.45;;;6.03;;
27305;SDS011;14792;50.886;6.468;2023-07-08T10:18:03;10.90;;;5.90;;
27305;SDS011;14792;50.886;6.468;2023-07-08T10:27:27;16.73;;;6.15;;
27305;SDS011;14792;50.886;6.468;2023-07-08T10:30:27;12.05;;;5.90;;
27305;SDS011;14792;50.886;6.468;2023-07-08T10:49:56;7.25;;;4.90;;
27305;SDS011;14792;50.886;6.468;2023-07-08T10:56:12;7.50;;;4.53;;
27305;SDS011;14792;50.886;6.468;2023-07-08T11:05:42;7.97;;;4.78;;
27305;SDS011;14792;50.886;6.468;2023-07-08T11:08:48;9.65;;;4.55;;
27305;SDS011;14792;50.886;6.468;2023-07-08T11:11:53;7.53;;;4.83;;
27305;SDS011;14792;50.886;6.468;2023-07-08T11:15:13;8.75;;;4.78;;
27305;SDS011;14792;50.886;6.468;2023-07-08T11:18:24;9.43;;;5.12;;
27305;SDS011;14792;50.886;6.468;2023-07-08T11:21:46;7.47;;;4.97;;
27305;SDS011;14792;50.886;6.468;2023-07-08T11:24:50;9.63;;;5.30;;
27305;SDS011;14792;50.886;6.468;2023-07-08T11:27:52;9.50;;;5.22;;
27305;SDS011;14792;50.886;6.468;2023-07-08T11:31:01;9.43;;;5.17;;
27305;SDS011;14792;50.886;6.468;2023-07-08T11:33:55;8.13;;;4.85;;
27305;SDS011;14792;50.886;6.468;2023-07-08T11:36:56;7.35;;;5.22;;
27305;SDS011;14792;50.886;6.468;2023-07-08T11:40:05;7.08;;;5.22;;
27305;SDS011;14792;50.886;6.468;2023-07-08T11:43:02;11.78;;;5.22;;
27305;SDS011;14792;50.886;6.468;2023-07-08T11:46:04;8.00;;;5.15;;
27305;SDS011;14792;50.886;6.468;2023-07-08T11:49:12;8.08;;;5.10;;
27305;SDS011;14792;50.886;6.468;2023-07-08T11:52:16;10.20;;;5.25;;
27305;SDS011;14792;50.886;6.468;2023-07-08T11:55:20;7.22;;;5.30;;
27305;SDS011;14792;50.886;6.468;2023-07-08T11:58:21;6.80;;;4.72;;
27305;SDS011;14792;50.886;6.468;2023-07-08T12:01:28;6.95;;;5.03;;
27305;SDS011;14792;50.886;6.468;2023-07-08T12:04:55;11.33;;;5.00;;
27305;SDS011;14792;50.886;6.468;2023-07-08T12:07:55;7.25;;;4.62;;
27305;SDS011;14792;50.886;6.468;2023-07-08T12:10:56;6.85;;;4.25;;
27305;SDS011;14792;50.886;6.468;2023-07-08T12:13:59;6.00;;;4.33;;
27305;SDS011;14792;50.886;6.468;2023-07-08T12:17:00;9.23;;;4.45;;
27305;SDS011;14792;50.886;6.468;2023-07-08T12:20:02;13.85;;;4.72;;
27305;SDS011;14792;50.886;6.468;2023-07-08T12:23:08;8.23;;;5.03;;
27305;SDS011;14792;50.886;6.468;2023-07-08T12:26:05;8.38;;;4.47;;
27305;SDS011;14792;50.886;6.468;2023-07-08T12:29:07;6.92;;;4.15;;
27305;SDS011;14792;50.886;6.468;2023-07-08T12:32:10;8.10;;;4.65;;
27305;SDS011;14792;50.886;6.468;2023-07-08T12:35:26;5.83;;;4.17;;
27305;SDS011;14792;50.886;6.468;2023-07-08T12:38:26;6.85;;;4.62;;
27305;SDS011;14792;50.886;6.468;2023-07-08T12:41:29;9.90;;;4.70;;
27305;SDS011;14792;50.886;6.468;2023-07-08T12:44:30;8.78;;;4.45;;
27305;SDS011;14792;50.886;6.468;2023-07-08T12:47:32;8.25;;;4.40;;
27305;SDS011;14792;50.886;6.468;2023-07-08T12:50:34;7.47;;;5.10;;
27305;SDS011;14792;50.886;6.468;2023-07-08T12:53:35;8.93;;;4.90;;
27305;SDS011;14792;50.886;6.468;2023-07-08T12:56:37;12.28;;;4.75;;
27305;SDS011;14792;50.886;6.468;2023-07-08T12:59:38;9.03;;;4.72;;
27305;SDS011;14792;50.886;6.468;2023-07-08T13:02:43;9.40;;;4.80;;
27305;SDS011;14792;50.886;6.468;2023-07-08T13:05:42;8.88;;;4.75;;
27305;SDS011;14792;50.886;6.468;2023-07-08T13:08:43;7.75;;;4.58;;
27305;SDS011;14792;50.886;6.468;2023-07-08T13:11:45;11.15;;;4.58;;
27305;SDS011;14792;50.886;6.468;2023-07-08T13:14:46;6.75;;;4.83;;
27305;SDS011;14792;50.886;6.468;2023-07-08T13:17:48;8.08;;;4.45;;
27305;SDS011;14792;50.886;6.468;2023-07-08T13:20:51;6.55;;;4.60;;
27305;SDS011;14792;50.886;6.468;2023-07-08T13:23:51;8.98;;;5.00;;
27305;SDS011;14792;50.886;6.468;2023-07-08T13:26:53;8.98;;;4.95;;
27305;SDS011;14792;50.886;6.468;2023-07-08T13:29:56;8.20;;;4.58;;
27305;SDS011;14792;50.886;6.468;2023-07-08T13:32:57;6.75;;;4.75;;
27305;SDS011;14792;50.886;6.468;2023-07-08T13:36:01;7.25;;;4.97;;
27305;SDS011;14792;50.886;6.468;2023-07-08T13:39:02;9.38;;;5.33;;
27305;SDS011;14792;50.886;6.468;2023-07-08T13:42:03;7.15;;;4.55;;
27305;SDS011;14792;50.886;6.468;2023-07-08T13:45:05;8.35;;;5.10;;
27305;SDS011;14792;50.886;6.468;2023-07-08T13:51:18;8.53;;;4.78;;
27305;SDS011;14792;50.886;6.468;2023-07-08T13:54:22;7.60;;;4.80;;
27305;SDS011;14792;50.886;6.468;2023-07-08T13:57:28;7.00;;;4.60;;
27305;SDS011;14792;50.886;6.468;2023-07-08T14:00:24;10.48;;;4.90;;
27305;SDS011;14792;50.886;6.468;2023-07-08T14:03:26;11.95;;;5.12;;
27305;SDS011;14792;50.886;6.468;2023-07-08T14:06:31;7.60;;;5.30;;
27305;SDS011;14792;50.886;6.468;2023-07-08T14:09:34;7.22;;;5.22;;
27305;SDS011;14792;50.886;6.468;2023-07-08T14:12:36;7.50;;;4.67;;
27305;SDS011;14792;50.886;6.468;2023-07-08T14:15:38;8.28;;;5.25;;
27305;SDS011;14792;50.886;6.468;2023-07-08T14:18:39;8.85;;;5.20;;
27305;SDS011;14792;50.886;6.468;2023-07-08T14:21:41;7.40;;;5.50;;
27305;SDS011;14792;50.886;6.468;2023-07-08T14:24:42;6.90;;;5.42;;
27305;SDS011;14792;50.886;6.468;2023-07-08T14:27:44;7.12;;;5.30;;
27305;SDS011;14792;50.886;6.468;2023-07-08T14:30:45;10.30;;;5.17;;
27305;SDS011;14792;50.886;6.468;2023-07-08T14:33:48;11.33;;;5.20;;
27305;SDS011;14792;50.886;6.468;2023-07-08T14:36:49;8.05;;;5.22;;
27305;SDS011;14792;50.886;6.468;2023-07-08T14:39:51;8.73;;;5.25;;
27305;SDS011;14792;50.886;6.468;2023-07-08T14:43:00;10.93;;;5.45;;
27305;SDS011;14792;50.886;6.468;2023-07-08T14:46:03;6.87;;;4.53;;
27305;SDS011;14792;50.886;6.468;2023-07-08T14:49:08;10.05;;;5.10;;
27305;SDS011;14792;50.886;6.468;2023-07-08T14:52:06;7.92;;;5.28;;
27305;SDS011;14792;50.886;6.468;2023-07-08T14:55:09;8.48;;;5.17;;
27305;SDS011;14792;50.886;6.468;2023-07-08T14:58:10;10.05;;;5.60;;
27305;SDS011;14792;50.886;6.468;2023-07-08T15:01:16;11.33;;;5.33;;
27305;SDS011;14792;50.886;6.468;2023-07-08T15:04:16;7.62;;;5.30;;
27305;SDS011;14792;50.886;6.468;2023-07-08T15:07:17;9.48;;;5.37;;
27305;SDS011;14792;50.886;6.468;2023-07-08T15:10:19;9.40;;;5.92;;
27305;SDS011;14792;50.886;6.468;2023-07-08T15:13:21;7.20;;;4.80;;
27305;SDS011;14792;50.886;6.468;2023-07-08T15:16:22;13.90;;;5.45;;
27305;SDS011;14792;50.886;6.468;2023-07-08T15:19:23;12.33;;;5.12;;
27305;SDS011;14792;50.886;6.468;2023-07-08T15:22:25;11.35;;;5.35;;
27305;SDS011;14792;50.886;6.468;2023-07-08T15:25:27;7.55;;;5.42;;
27305;SDS011;14792;50.886;6.468;2023-07-08T15:28:40;9.13;;;4.95;;
27305;SDS011;14792;50.886;6.468;2023-07-08T15:31:40;7.90;;;4.92;;
27305;SDS011;14792;50.886;6.468;2023-07-08T15:34:41;8.80;;;4.97;;
27305;SDS011;14792;50.886;6.468;2023-07-08T15:37:43;9.98;;;5.12;;
27305;SDS011;14792;50.886;6.468;2023-07-08T15:40:45;9.98;;;5.37;;
27305;SDS011;14792;50.886;6.468;2023-07-08T15:43:46;9.15;;;5.20;;
27305;SDS011;14792;50.886;6.468;2023-07-08T15:46:48;9.58;;;4.90;;
27305;SDS011;14792;50.886;6.468;2023-07-08T15:49:49;8.08;;;5.55;;
27305;SDS011;14792;50.886;6.468;2023-07-08T15:52:51;7.70;;;4.87;;
27305;SDS011;14792;50.886;6.468;2023-07-08T15:55:53;10.98;;;5.60;;
27305;SDS011;14792;50.886;6.468;2023-07-08T15:58:54;7.67;;;5.00;;
27305;SDS011;14792;50.886;6.468;2023-07-08T16:01:57;11.18;;;5.00;;
27305;SDS011;14792;50.886;6.468;2023-07-08T16:04:57;8.28;;;5.28;;
27305;SDS011;14792;50.886;6.468;2023-07-08T16:08:00;9.05;;;5.47;;
27305;SDS011;14792;50.886;6.468;2023-07-08T16:11:03;8.80;;;5.20;;
27305;SDS011;14792;50.886;6.468;2023-07-08T16:14:04;7.75;;;5.03;;
27305;SDS011;14792;50.886;6.468;2023-07-08T16:17:09;10.00;;;4.92;;
27305;SDS011;14792;50.886;6.468;2023-07-08T16:20:14;12.70;;;5.95;;
27305;SDS011;14792;50.886;6.468;2023-07-08T16:23:14;9.43;;;4.87;;
27305;SDS011;14792;50.886;6.468;2023-07-08T16:26:16;9.73;;;5.40;;
27305;SDS011;14792;50.886;6.468;2023-07-08T16:29:17;11.25;;;5.10;;
27305;SDS011;14792;50.886;6.468;2023-07-08T16:32:19;9.08;;;4.55;;
27305;SDS011;14792;50.886;6.468;2023-07-08T16:35:20;8.98;;;4.42;;
27305;SDS011;14792;50.886;6.468;2023-07-08T16:38:22;6.75;;;4.50;;
27305;SDS011;14792;50.886;6.468;2023-07-08T16:41:31;8.15;;;4.87;;
27305;SDS011;14792;50.886;6.468;2023-07-08T16:44:32;10.00;;;5.58;;
27305;SDS011;14792;50.886;6.468;2023-07-08T16:47:37;16.48;;;5.08;;
27305;SDS011;14792;50.886;6.468;2023-07-08T16:50:38;8.83;;;4.60;;
27305;SDS011;14792;50.886;6.468;2023-07-08T16:53:40;7.72;;;3.98;;
27305;SDS011;14792;50.886;6.468;2023-07-08T16:56:42;6.95;;;3.90;;
27305;SDS011;14792;50.886;6.468;2023-07-08T16:59:43;6.15;;;3.35;;
27305;SDS011;14792;50.886;6.468;2023-07-08T17:02:45;9.43;;;3.87;;
27305;SDS011;14792;50.886;6.468;2023-07-08T17:05:46;6.95;;;4.00;;
27305;SDS011;14792;50.886;6.468;2023-07-08T17:08:47;8.10;;;4.25;;
27305;SDS011;14792;50.886;6.468;2023-07-08T17:11:49;5.97;;;3.80;;
27305;SDS011;14792;50.886;6.468;2023-07-08T17:14:51;10.58;;;4.78;;
27305;SDS011;14792;50.886;6.468;2023-07-08T17:17:53;9.40;;;5.00;;
27305;SDS011;14792;50.886;6.468;2023-07-08T17:20:58;16.62;;;4.80;;
27305;SDS011;14792;50.886;6.468;2023-07-08T17:23:56;10.75;;;4.85;;
27305;SDS011;14792;50.886;6.468;2023-07-08T17:26:57;6.25;;;4.33;;
27305;SDS011;14792;50.886;6.468;2023-07-08T17:30:01;9.58;;;4.78;;
27305;SDS011;14792;50.886;6.468;2023-07-08T17:33:02;10.70;;;4.83;;
27305;SDS011;14792;50.886;6.468;2023-07-08T17:36:08;8.00;;;4.90;;
27305;SDS011;14792;50.886;6.468;2023-07-08T17:39:09;11.48;;;5.22;;
27305;SDS011;14792;50.886;6.468;2023-07-08T17:42:10;8.23;;;5.12;;
27305;SDS011;14792;50.886;6.468;2023-07-08T17:45:12;16.17;;;5.03;;
27305;SDS011;14792;50.886;6.468;2023-07-08T17:48:14;20.00;;;5.72;;
27305;SDS011;14792;50.886;6.468;2023-07-08T17:51:19;12.80;;;5.78;;
27305;SDS011;14792;50.886;6.468;2023-07-08T17:54:22;14.15;;;5.75;;
27305;SDS011;14792;50.886;6.468;2023-07-08T17:57:24;14.80;;;6.53;;
27305;SDS011;14792;50.886;6.468;2023-07-08T18:00:26;17.80;;;6.90;;
27305;SDS011;14792;50.886;6.468;2023-07-08T18:03:27;13.10;;;6.28;;
27305;SDS011;14792;50.886;6.468;2023-07-08T18:09:33;9.45;;;7.12;;
27305;SDS011;14792;50.886;6.468;2023-07-08T18:15:36;12.75;;;7.35;;
27305;SDS011;14792;50.886;6.468;2023-07-08T18:21:38;16.82;;;9.00;;
27305;SDS011;14792;50.886;6.468;2023-07-08T18:27:41;12.43;;;8.05;;
27305;SDS011;14792;50.886;6.468;2023-07-08T18:33:44;11.57;;;6.77;;
27305;SDS011;14792;50.886;6.468;2023-07-08T18:39:47;13.85;;;6.95;;
27305;SDS011;14792;50.886;6.468;2023-07-08T18:45:49;12.50;;;6.90;;
27305;SDS011;14792;50.886;6.468;2023-07-08T18:51:52;13.83;;;7.13;;
27305;SDS011;14792;50.886;6.468;2023-07-08T18:57:55;11.37;;;7.03;;
27305;SDS011;14792;50.886;6.468;2023-07-08T19:04:01;14.70;;;7.33;;
27305;SDS011;14792;50.886;6.468;2023-07-08T19:07:02;9.23;;;6.53;;
27305;SDS011;14792;50.886;6.468;2023-07-08T19:10:04;10.60;;;5.70;;
27305;SDS011;14792;50.886;6.468;2023-07-08T19:16:10;10.98;;;7.00;;
27305;SDS011;14792;50.886;6.468;2023-07-08T19:19:11;11.12;;;7.37;;
27305;SDS011;14792;50.886;6.468;2023-07-08T19:22:17;8.83;;;6.70;;
27305;SDS011;14792;50.886;6.468;2023-07-08T19:25:22;10.88;;;6.50;;
27305;SDS011;14792;50.886;6.468;2023-07-08T19:28:22;9.95;;;6.40;;
27305;SDS011;14792;50.886;6.468;2023-07-08T19:31:28;13.18;;;6.50;;
27305;SDS011;14792;50.886;6.468;2023-07-08T19:34:31;12.45;;;6.75;;
27305;SDS011;14792;50.886;6.468;2023-07-08T19:37:33;9.65;;;6.92;;
27305;SDS011;14792;50.886;6.468;2023-07-08T19:40:34;10.35;;;7.05;;
27305;SDS011;14792;50.886;6.468;2023-07-08T19:43:36;10.00;;;6.78;;
27305;SDS011;14792;50.886;6.468;2023-07-08T19:46:38;13.90;;;6.97;;
27305;SDS011;14792;50.886;6.468;2023-07-08T19:49:39;14.10;;;7.83;;
27305;SDS011;14792;50.886;6.468;2023-07-08T19:52:41;12.28;;;6.42;;